sensor_id;sensor_type;location;lat;lon;timestamp;temperature;humidity
9371;DHT22;4725;48.384;8.984;2022-12-08T00:01:26;0.00;99.90
9371;DHT22;4725;48.384;8.984;2022-12-08T00:06:24;-0.10;99.90
9371;DHT22;4725;48.384;8.984;2022-12-08T00:11:54;0.00;99.90
9371;DHT22;4725;48.384;8.984;2022-12-08T00:14:25;-0.10;99.90
9371;DHT22;4725;48.384;8.984;2022-12-08T00:16:52;-0.10;99.90
9371;DHT22;4725;48.384;8.984;2022-12-08T00:21:47;-0.10;99.90
9371;DHT22;4725;48.384;8.984;2022-12-08T00:24:15;-0.10;99.90
9371;DHT22;4725;48.384;8.984;2022-12-08T00:26:42;0.00;99.90
9371;DHT22;4725;48.384;8.984;2022-12-08T00:29:09;-0.10;99.90
9371;DHT22;4725;48.384;8.984;2022-12-08T00:31:37;-0.10;99.90
9371;DHT22;4725;48.384;8.984;2022-12-08T00:36:33;-0.10;99.90
9371;DHT22;4725;48.384;8.984;2022-12-08T00:41:27;-0.10;99.90
9371;DHT22;4725;48.384;8.984;2022-12-08T00:44:13;-0.10;99.90
9371;DHT22;4725;48.384;8.984;2022-12-08T00:46:42;-0.10;99.90
9371;DHT22;4725;48.384;8.984;2022-12-08T00:49:09;-0.10;99.90
9371;DHT22;4725;48.384;8.984;2022-12-08T00:51:36;-0.20;99.90
9371;DHT22;4725;48.384;8.984;2022-12-08T00:54:04;-0.20;99.90
9371;DHT22;4725;48.384;8.984;2022-12-08T00:56:32;-0.20;99.90
9371;DHT22;4725;48.384;8.984;2022-12-08T00:58:59;-0.10;99.90
9371;DHT22;4725;48.384;8.984;2022-12-08T01:01:26;-0.10;99.90
9371;DHT22;4725;48.384;8.984;2022-12-08T01:03:55;0.00;99.90
9371;DHT22;4725;48.384;8.984;2022-12-08T01:11:18;0.00;99.90
9371;DHT22;4725;48.384;8.984;2022-12-08T01:18:46;-0.10;99.90
9371;DHT22;4725;48.384;8.984;2022-12-08T01:21:14;-0.20;99.90
9371;DHT22;4725;48.384;8.984;2022-12-08T01:23:42;-0.30;99.90
9371;DHT22;4725;48.384;8.984;2022-12-08T01:26:13;-0.30;99.90
9371;DHT22;4725;48.384;8.984;2022-12-08T01:41:01;-0.50;99.90
9371;DHT22;4725;48.384;8.984;2022-12-08T01:43:55;-0.60;99.90
9371;DHT22;4725;48.384;8.984;2022-12-08T01:46:23;-0.70;99.90
9371;DHT22;4725;48.384;8.984;2022-12-08T01:48:52;-0.80;99.90
9371;DHT22;4725;48.384;8.984;2022-12-08T01:51:20;-0.90;99.90
9371;DHT22;4725;48.384;8.984;2022-12-08T01:53:48;-0.90;99.90
9371;DHT22;4725;48.384;8.984;2022-12-08T01:56:22;-1.00;99.90
9371;DHT22;4725;48.384;8.984;2022-12-08T01:58:53;-1.20;99.90
9371;DHT22;4725;48.384;8.984;2022-12-08T02:01:21;-1.30;99.90
9371;DHT22;4725;48.384;8.984;2022-12-08T02:03:52;-1.40;99.90
9371;DHT22;4725;48.384;8.984;2022-12-08T02:06:21;-1.60;99.90
9371;DHT22;4725;48.384;8.984;2022-12-08T02:08:50;-1.80;99.90
9371;DHT22;4725;48.384;8.984;2022-12-08T02:11:19;-1.80;99.90
9371;DHT22;4725;48.384;8.984;2022-12-08T02:13:47;-1.90;99.90
9371;DHT22;4725;48.384;8.984;2022-12-08T02:16:26;-1.90;99.90
9371;DHT22;4725;48.384;8.984;2022-12-08T02:19:07;-2.00;99.90
9371;DHT22;4725;48.384;8.984;2022-12-08T02:21:47;-1.80;99.90
9371;DHT22;4725;48.384;8.984;2022-12-08T02:24:23;0.70;99.90
9371;DHT22;4725;48.384;8.984;2022-12-08T02:35:59;-2.20;99.90
9371;DHT22;4725;48.384;8.984;2022-12-08T02:38:40;-2.30;99.90
9371;DHT22;4725;48.384;8.984;2022-12-08T02:41:17;-2.30;99.90
9371;DHT22;4725;48.384;8.984;2022-12-08T02:43:47;-2.20;99.90
9371;DHT22;4725;48.384;8.984;2022-12-08T02:46:20;-2.20;99.90
9371;DHT22;4725;48.384;8.984;2022-12-08T02:48:50;-2.20;99.90
9371;DHT22;4725;48.384;8.984;2022-12-08T02:51:19;-2.10;99.90
9371;DHT22;4725;48.384;8.984;2022-12-08T02:53:46;-2.10;99.90
9371;DHT22;4725;48.384;8.984;2022-12-08T02:56:23;-2.10;99.90
9371;DHT22;4725;48.384;8.984;2022-12-08T02:59:09;-2.00;99.90
9371;DHT22;4725;48.384;8.984;2022-12-08T03:01:55;-2.10;99.90
9371;DHT22;4725;48.384;8.984;2022-12-08T03:04:34;-2.10;99.90
9371;DHT22;4725;48.384;8.984;2022-12-08T03:07:07;-2.10;99.90
9371;DHT22;4725;48.384;8.984;2022-12-08T03:09:41;-2.30;99.90
9371;DHT22;4725;48.384;8.984;2022-12-08T03:12:15;-2.30;99.90
9371;DHT22;4725;48.384;8.984;2022-12-08T03:14:46;-2.40;99.90
9371;DHT22;4725;48.384;8.984;2022-12-08T03:17:16;-2.60;99.90
9371;DHT22;4725;48.384;8.984;2022-12-08T03:19:45;-2.60;99.90
9371;DHT22;4725;48.384;8.984;2022-12-08T03:22:17;-2.60;99.90
9371;DHT22;4725;48.384;8.984;2022-12-08T03:24:46;-2.50;99.90
9371;DHT22;4725;48.384;8.984;2022-12-08T03:27:15;-2.60;99.90
9371;DHT22;4725;48.384;8.984;2022-12-08T03:29:44;-2.70;99.90
9371;DHT22;4725;48.384;8.984;2022-12-08T03:32:15;-2.70;99.90
9371;DHT22;4725;48.384;8.984;2022-12-08T03:34:47;-2.70;99.90
9371;DHT22;4725;48.384;8.984;2022-12-08T03:37:16;-2.70;99.90
9371;DHT22;4725;48.384;8.984;2022-12-08T03:39:43;-2.70;99.90
9371;DHT22;4725;48.384;8.984;2022-12-08T03:42:11;-2.60;99.90
9371;DHT22;4725;48.384;8.984;2022-12-08T03:44:38;-2.70;99.90
9371;DHT22;4725;48.384;8.984;2022-12-08T03:47:05;-2.70;99.90
9371;DHT22;4725;48.384;8.984;2022-12-08T03:49:32;-2.80;99.90
9371;DHT22;4725;48.384;8.984;2022-12-08T03:51:59;-2.80;99.90
9371;DHT22;4725;48.384;8.984;2022-12-08T03:54:27;-2.90;99.90
9371;DHT22;4725;48.384;8.984;2022-12-08T03:56:54;-2.90;99.90
9371;DHT22;4725;48.384;8.984;2022-12-08T03:59:21;-3.00;99.90
9371;DHT22;4725;48.384;8.984;2022-12-08T04:01:48;-3.00;99.90
9371;DHT22;4725;48.384;8.984;2022-12-08T04:04:15;-3.10;99.90
9371;DHT22;4725;48.384;8.984;2022-12-08T04:06:42;-3.20;99.90
9371;DHT22;4725;48.384;8.984;2022-12-08T04:09:08;-3.20;99.90
9371;DHT22;4725;48.384;8.984;2022-12-08T04:11:37;-3.30;99.90
9371;DHT22;4725;48.384;8.984;2022-12-08T04:14:04;-3.30;99.90
9371;DHT22;4725;48.384;8.984;2022-12-08T04:16:31;-3.20;99.90
9371;DHT22;4725;48.384;8.984;2022-12-08T04:18:58;-3.00;99.90
9371;DHT22;4725;48.384;8.984;2022-12-08T04:21:25;-3.00;99.90
9371;DHT22;4725;48.384;8.984;2022-12-08T04:23:52;-2.90;99.90
9371;DHT22;4725;48.384;8.984;2022-12-08T04:26:19;-3.00;99.90
9371;DHT22;4725;48.384;8.984;2022-12-08T04:28:48;-3.10;99.90
9371;DHT22;4725;48.384;8.984;2022-12-08T04:31:15;-3.00;99.90
9371;DHT22;4725;48.384;8.984;2022-12-08T04:33:42;-3.00;99.90
9371;DHT22;4725;48.384;8.984;2022-12-08T04:36:09;-3.10;99.90
9371;DHT22;4725;48.384;8.984;2022-12-08T04:38:36;-3.00;99.90
9371;DHT22;4725;48.384;8.984;2022-12-08T04:41:03;-3.10;99.90
9371;DHT22;4725;48.384;8.984;2022-12-08T04:43:30;-3.10;99.90
9371;DHT22;4725;48.384;8.984;2022-12-08T04:45:58;-3.20;99.90
9371;DHT22;4725;48.384;8.984;2022-12-08T04:48:25;-3.30;99.90
9371;DHT22;4725;48.384;8.984;2022-12-08T04:50:52;-3.30;99.90
9371;DHT22;4725;48.384;8.984;2022-12-08T04:53:19;-3.30;99.90
9371;DHT22;4725;48.384;8.984;2022-12-08T04:56:04;-3.20;99.90
9371;DHT22;4725;48.384;8.984;2022-12-08T04:58:57;-3.20;99.90
9371;DHT22;4725;48.384;8.984;2022-12-08T05:01:38;-3.20;99.90
9371;DHT22;4725;48.384;8.984;2022-12-08T05:04:05;-3.30;99.90
9371;DHT22;4725;48.384;8.984;2022-12-08T05:06:32;-3.30;99.90
9371;DHT22;4725;48.384;8.984;2022-12-08T05:08:59;-3.30;99.90
9371;DHT22;4725;48.384;8.984;2022-12-08T05:11:26;-3.30;99.90
9371;DHT22;4725;48.384;8.984;2022-12-08T05:13:53;-3.30;99.90
9371;DHT22;4725;48.384;8.984;2022-12-08T05:16:20;-3.40;99.90
9371;DHT22;4725;48.384;8.984;2022-12-08T05:18:48;-3.40;99.90
9371;DHT22;4725;48.384;8.984;2022-12-08T05:21:15;-3.30;99.90
9371;DHT22;4725;48.384;8.984;2022-12-08T05:23:42;-3.30;99.90
9371;DHT22;4725;48.384;8.984;2022-12-08T05:26:09;-3.30;99.90
9371;DHT22;4725;48.384;8.984;2022-12-08T05:28:36;-3.40;99.90
9371;DHT22;4725;48.384;8.984;2022-12-08T05:31:03;-3.50;99.90
9371;DHT22;4725;48.384;8.984;2022-12-08T05:33:30;-3.50;99.90
9371;DHT22;4725;48.384;8.984;2022-12-08T05:35:58;-3.40;99.90
9371;DHT22;4725;48.384;8.984;2022-12-08T05:38:25;-3.40;99.90
9371;DHT22;4725;48.384;8.984;2022-12-08T05:40:52;-3.50;99.90
9371;DHT22;4725;48.384;8.984;2022-12-08T05:43:19;-3.60;99.90
9371;DHT22;4725;48.384;8.984;2022-12-08T05:45:47;-3.60;99.90
9371;DHT22;4725;48.384;8.984;2022-12-08T05:48:14;-3.70;99.90
9371;DHT22;4725;48.384;8.984;2022-12-08T05:50:45;-3.80;99.90
9371;DHT22;4725;48.384;8.984;2022-12-08T05:53:14;-3.90;99.90
9371;DHT22;4725;48.384;8.984;2022-12-08T05:55:41;-3.80;99.90
9371;DHT22;4725;48.384;8.984;2022-12-08T05:58:12;-3.80;99.90
9371;DHT22;4725;48.384;8.984;2022-12-08T06:00:40;-3.70;99.90
9371;DHT22;4725;48.384;8.984;2022-12-08T06:03:07;-3.70;99.90
9371;DHT22;4725;48.384;8.984;2022-12-08T06:05:36;-3.80;99.90
9371;DHT22;4725;48.384;8.984;2022-12-08T06:08:03;-3.90;99.90
9371;DHT22;4725;48.384;8.984;2022-12-08T06:10:31;-4.10;99.90
9371;DHT22;4725;48.384;8.984;2022-12-08T06:12:58;-4.00;99.90
9371;DHT22;4725;48.384;8.984;2022-12-08T06:15:25;-4.00;99.90
9371;DHT22;4725;48.384;8.984;2022-12-08T06:17:52;-3.80;99.90
9371;DHT22;4725;48.384;8.984;2022-12-08T06:20:19;-3.90;99.90
9371;DHT22;4725;48.384;8.984;2022-12-08T06:22:46;-4.00;99.90
9371;DHT22;4725;48.384;8.984;2022-12-08T06:25:13;-3.90;99.90
9371;DHT22;4725;48.384;8.984;2022-12-08T06:27:42;-3.90;99.90
9371;DHT22;4725;48.384;8.984;2022-12-08T06:30:09;-4.00;99.90
9371;DHT22;4725;48.384;8.984;2022-12-08T06:32:36;-4.10;99.90
9371;DHT22;4725;48.384;8.984;2022-12-08T06:35:03;-4.30;99.90
9371;DHT22;4725;48.384;8.984;2022-12-08T06:37:31;-4.40;99.90
9371;DHT22;4725;48.384;8.984;2022-12-08T06:39:58;-4.60;99.90
9371;DHT22;4725;48.384;8.984;2022-12-08T06:42:25;-4.60;99.90
9371;DHT22;4725;48.384;8.984;2022-12-08T06:45:14;-4.70;99.90
9371;DHT22;4725;48.384;8.984;2022-12-08T06:47:42;-4.60;99.90
9371;DHT22;4725;48.384;8.984;2022-12-08T06:50:10;-4.40;99.90
9371;DHT22;4725;48.384;8.984;2022-12-08T06:52:38;-4.40;99.90
9371;DHT22;4725;48.384;8.984;2022-12-08T06:55:06;-4.30;99.90
9371;DHT22;4725;48.384;8.984;2022-12-08T06:57:33;-4.20;99.90
9371;DHT22;4725;48.384;8.984;2022-12-08T07:00:02;-4.30;99.90
9371;DHT22;4725;48.384;8.984;2022-12-08T07:02:31;-4.40;99.90
9371;DHT22;4725;48.384;8.984;2022-12-08T07:04:58;-4.50;99.90
9371;DHT22;4725;48.384;8.984;2022-12-08T07:07:25;-4.60;99.90
9371;DHT22;4725;48.384;8.984;2022-12-08T07:09:51;-4.40;99.90
9371;DHT22;4725;48.384;8.984;2022-12-08T07:12:19;-4.40;99.90
9371;DHT22;4725;48.384;8.984;2022-12-08T07:14:45;-4.40;99.90
9371;DHT22;4725;48.384;8.984;2022-12-08T07:17:12;-4.40;99.90
9371;DHT22;4725;48.384;8.984;2022-12-08T07:19:41;-4.30;99.90
9371;DHT22;4725;48.384;8.984;2022-12-08T07:22:08;-4.20;99.90
9371;DHT22;4725;48.384;8.984;2022-12-08T07:24:35;-4.20;99.90
9371;DHT22;4725;48.384;8.984;2022-12-08T07:27:02;-3.90;99.90
9371;DHT22;4725;48.384;8.984;2022-12-08T07:29:29;-3.90;99.90
9371;DHT22;4725;48.384;8.984;2022-12-08T07:31:56;-3.90;99.90
9371;DHT22;4725;48.384;8.984;2022-12-08T07:34:23;-3.90;99.90
9371;DHT22;4725;48.384;8.984;2022-12-08T07:36:51;-3.90;99.90
9371;DHT22;4725;48.384;8.984;2022-12-08T07:39:18;-3.90;99.90
9371;DHT22;4725;48.384;8.984;2022-12-08T07:41:45;-3.90;99.90
9371;DHT22;4725;48.384;8.984;2022-12-08T07:44:12;-4.00;99.90
9371;DHT22;4725;48.384;8.984;2022-12-08T07:46:39;-3.90;99.90
9371;DHT22;4725;48.384;8.984;2022-12-08T07:49:06;-3.80;99.90
9371;DHT22;4725;48.384;8.984;2022-12-08T07:51:33;-3.90;99.90
9371;DHT22;4725;48.384;8.984;2022-12-08T07:54:01;-4.00;99.90
9371;DHT22;4725;48.384;8.984;2022-12-08T07:58:56;-3.80;99.90
9371;DHT22;4725;48.384;8.984;2022-12-08T08:01:24;-3.80;99.90
9371;DHT22;4725;48.384;8.984;2022-12-08T08:03:53;-3.80;99.90
9371;DHT22;4725;48.384;8.984;2022-12-08T08:06:21;-3.90;99.90
9371;DHT22;4725;48.384;8.984;2022-12-08T08:08:48;-3.80;99.90
9371;DHT22;4725;48.384;8.984;2022-12-08T08:11:30;-3.80;99.90
9371;DHT22;4725;48.384;8.984;2022-12-08T08:16:25;-3.80;99.90
9371;DHT22;4725;48.384;8.984;2022-12-08T08:18:52;-3.70;99.90
9371;DHT22;4725;48.384;8.984;2022-12-08T08:21:19;-3.70;99.90
9371;DHT22;4725;48.384;8.984;2022-12-08T08:23:46;-3.70;99.90
9371;DHT22;4725;48.384;8.984;2022-12-08T08:26:13;-3.70;99.90
9371;DHT22;4725;48.384;8.984;2022-12-08T08:28:42;-3.70;99.90
9371;DHT22;4725;48.384;8.984;2022-12-08T08:31:10;-3.60;99.90
9371;DHT22;4725;48.384;8.984;2022-12-08T08:33:37;-3.50;99.90
9371;DHT22;4725;48.384;8.984;2022-12-08T08:36:06;-3.60;99.90
9371;DHT22;4725;48.384;8.984;2022-12-08T08:38:34;-3.50;99.90
9371;DHT22;4725;48.384;8.984;2022-12-08T08:41:06;-3.40;99.90
9371;DHT22;4725;48.384;8.984;2022-12-08T08:46:03;-3.20;99.90
9371;DHT22;4725;48.384;8.984;2022-12-08T08:48:31;-3.30;99.90
9371;DHT22;4725;48.384;8.984;2022-12-08T08:51:06;-3.20;99.90
9371;DHT22;4725;48.384;8.984;2022-12-08T08:56:00;-3.10;99.90
9371;DHT22;4725;48.384;8.984;2022-12-08T08:58:29;-2.90;99.90
9371;DHT22;4725;48.384;8.984;2022-12-08T09:03:25;-2.60;99.90
9371;DHT22;4725;48.384;8.984;2022-12-08T09:05:53;-2.40;99.90
9371;DHT22;4725;48.384;8.984;2022-12-08T09:08:20;-2.30;99.90
9371;DHT22;4725;48.384;8.984;2022-12-08T09:13:14;-2.20;99.90
9371;DHT22;4725;48.384;8.984;2022-12-08T09:15:41;-2.10;99.90
9371;DHT22;4725;48.384;8.984;2022-12-08T09:20:41;-2.10;99.90
9371;DHT22;4725;48.384;8.984;2022-12-08T09:25:35;-1.40;99.90
9371;DHT22;4725;48.384;8.984;2022-12-08T09:28:02;-1.30;99.90
9371;DHT22;4725;48.384;8.984;2022-12-08T09:30:29;-1.10;99.90
9371;DHT22;4725;48.384;8.984;2022-12-08T09:32:56;-0.80;99.90
9371;DHT22;4725;48.384;8.984;2022-12-08T09:35:23;-0.60;99.90
9371;DHT22;4725;48.384;8.984;2022-12-08T09:37:51;-0.50;99.90
9371;DHT22;4725;48.384;8.984;2022-12-08T09:40:20;-0.30;99.90
9371;DHT22;4725;48.384;8.984;2022-12-08T09:42:51;-0.30;99.90
9371;DHT22;4725;48.384;8.984;2022-12-08T09:45:21;-0.40;99.90
9371;DHT22;4725;48.384;8.984;2022-12-08T09:47:58;-0.40;99.90
9371;DHT22;4725;48.384;8.984;2022-12-08T09:50:31;-1.30;99.90
9371;DHT22;4725;48.384;8.984;2022-12-08T09:53:04;-0.50;99.90
9371;DHT22;4725;48.384;8.984;2022-12-08T09:55:39;-0.70;99.90
9371;DHT22;4725;48.384;8.984;2022-12-08T09:58:16;-0.80;99.90
9371;DHT22;4725;48.384;8.984;2022-12-08T10:00:45;-0.90;99.90
9371;DHT22;4725;48.384;8.984;2022-12-08T10:03:12;-0.90;99.90
9371;DHT22;4725;48.384;8.984;2022-12-08T10:05:43;-0.80;99.90
9371;DHT22;4725;48.384;8.984;2022-12-08T10:08:19;-0.50;99.90
9371;DHT22;4725;48.384;8.984;2022-12-08T10:10:49;-0.30;99.90
9371;DHT22;4725;48.384;8.984;2022-12-08T10:13:24;-0.30;99.90
9371;DHT22;4725;48.384;8.984;2022-12-08T10:16:03;0.00;99.90
9371;DHT22;4725;48.384;8.984;2022-12-08T10:18:33;0.10;99.90
9371;DHT22;4725;48.384;8.984;2022-12-08T10:21:16;0.30;99.90
9371;DHT22;4725;48.384;8.984;2022-12-08T10:23:49;0.50;99.90
9371;DHT22;4725;48.384;8.984;2022-12-08T10:26:19;0.60;99.90
9371;DHT22;4725;48.384;8.984;2022-12-08T10:28:47;0.80;99.90
9371;DHT22;4725;48.384;8.984;2022-12-08T10:31:16;0.70;99.90
9371;DHT22;4725;48.384;8.984;2022-12-08T10:33:44;0.70;99.90
9371;DHT22;4725;48.384;8.984;2022-12-08T10:36:12;0.70;99.90
9371;DHT22;4725;48.384;8.984;2022-12-08T10:38:39;0.70;99.90
9371;DHT22;4725;48.384;8.984;2022-12-08T10:41:12;0.90;99.90
9371;DHT22;4725;48.384;8.984;2022-12-08T10:43:44;0.80;99.90
9371;DHT22;4725;48.384;8.984;2022-12-08T10:46:14;0.80;99.90
9371;DHT22;4725;48.384;8.984;2022-12-08T10:48:52;0.70;99.90
9371;DHT22;4725;48.384;8.984;2022-12-08T10:51:26;0.80;99.90
9371;DHT22;4725;48.384;8.984;2022-12-08T10:53:54;0.80;99.90
9371;DHT22;4725;48.384;8.984;2022-12-08T10:56:25;0.80;99.90
9371;DHT22;4725;48.384;8.984;2022-12-08T10:59:06;0.90;99.90
9371;DHT22;4725;48.384;8.984;2022-12-08T11:01:39;0.90;99.90
9371;DHT22;4725;48.384;8.984;2022-12-08T11:04:12;0.90;99.90
9371;DHT22;4725;48.384;8.984;2022-12-08T11:06:41;0.70;99.90
9371;DHT22;4725;48.384;8.984;2022-12-08T11:09:30;0.70;99.90
9371;DHT22;4725;48.384;8.984;2022-12-08T11:12:06;0.40;99.90
9371;DHT22;4725;48.384;8.984;2022-12-08T11:14:44;0.60;99.90
9371;DHT22;4725;48.384;8.984;2022-12-08T11:17:14;1.00;99.90
9371;DHT22;4725;48.384;8.984;2022-12-08T11:19:43;1.90;99.90
9371;DHT22;4725;48.384;8.984;2022-12-08T11:22:22;2.60;99.90
9371;DHT22;4725;48.384;8.984;2022-12-08T11:24:57;2.50;99.90
9371;DHT22;4725;48.384;8.984;2022-12-08T11:27:26;3.00;99.90
9371;DHT22;4725;48.384;8.984;2022-12-08T11:29:53;1.50;99.90
9371;DHT22;4725;48.384;8.984;2022-12-08T11:32:21;1.50;99.90
9371;DHT22;4725;48.384;8.984;2022-12-08T11:34:51;1.90;99.90
9371;DHT22;4725;48.384;8.984;2022-12-08T11:37:23;2.80;99.90
9371;DHT22;4725;48.384;8.984;2022-12-08T11:39:54;3.70;99.90
9371;DHT22;4725;48.384;8.984;2022-12-08T11:42:27;3.70;99.90
9371;DHT22;4725;48.384;8.984;2022-12-08T11:44:58;4.20;99.90
9371;DHT22;4725;48.384;8.984;2022-12-08T11:47:29;4.50;99.90
9371;DHT22;4725;48.384;8.984;2022-12-08T11:50:02;4.60;99.90
9371;DHT22;4725;48.384;8.984;2022-12-08T11:52:44;4.50;99.90
9371;DHT22;4725;48.384;8.984;2022-12-08T11:55:25;3.80;99.90
9371;DHT22;4725;48.384;8.984;2022-12-08T11:57:56;3.70;99.90
9371;DHT22;4725;48.384;8.984;2022-12-08T12:02:57;4.00;99.90
9371;DHT22;4725;48.384;8.984;2022-12-08T12:05:32;4.00;99.90
9371;DHT22;4725;48.384;8.984;2022-12-08T12:10:47;3.20;99.90
9371;DHT22;4725;48.384;8.984;2022-12-08T12:13:37;2.60;99.90
9371;DHT22;4725;48.384;8.984;2022-12-08T12:16:32;2.20;99.90
9371;DHT22;4725;48.384;8.984;2022-12-08T12:19:05;1.90;99.90
9371;DHT22;4725;48.384;8.984;2022-12-08T12:21:37;2.00;99.90
9371;DHT22;4725;48.384;8.984;2022-12-08T12:24:06;2.20;99.90
9371;DHT22;4725;48.384;8.984;2022-12-08T12:26:36;2.00;99.90
9371;DHT22;4725;48.384;8.984;2022-12-08T12:29:14;1.70;99.90
9371;DHT22;4725;48.384;8.984;2022-12-08T12:31:47;1.80;99.90
9371;DHT22;4725;48.384;8.984;2022-12-08T12:34:17;2.00;99.90
9371;DHT22;4725;48.384;8.984;2022-12-08T12:36:50;1.90;99.90
9371;DHT22;4725;48.384;8.984;2022-12-08T12:39:19;2.30;99.90
9371;DHT22;4725;48.384;8.984;2022-12-08T12:41:48;2.20;99.90
9371;DHT22;4725;48.384;8.984;2022-12-08T12:44:41;2.00;99.90
9371;DHT22;4725;48.384;8.984;2022-12-08T12:47:13;2.10;99.90
9371;DHT22;4725;48.384;8.984;2022-12-08T12:50:06;1.90;99.90
9371;DHT22;4725;48.384;8.984;2022-12-08T12:52:43;1.90;99.90
9371;DHT22;4725;48.384;8.984;2022-12-08T12:58:34;1.80;99.90
9371;DHT22;4725;48.384;8.984;2022-12-08T13:04:08;1.70;99.90
9371;DHT22;4725;48.384;8.984;2022-12-08T13:06:39;1.70;99.90
9371;DHT22;4725;48.384;8.984;2022-12-08T13:09:19;1.60;99.90
9371;DHT22;4725;48.384;8.984;2022-12-08T13:11:50;1.70;99.90
9371;DHT22;4725;48.384;8.984;2022-12-08T13:14:29;1.80;99.90
9371;DHT22;4725;48.384;8.984;2022-12-08T13:16:58;1.80;99.90
9371;DHT22;4725;48.384;8.984;2022-12-08T13:19:29;1.60;99.90
9371;DHT22;4725;48.384;8.984;2022-12-08T13:21:56;1.70;99.90
9371;DHT22;4725;48.384;8.984;2022-12-08T13:24:31;1.70;99.90
9371;DHT22;4725;48.384;8.984;2022-12-08T13:27:32;1.70;99.90
9371;DHT22;4725;48.384;8.984;2022-12-08T13:33:09;1.60;99.90
9371;DHT22;4725;48.384;8.984;2022-12-08T13:35:44;1.60;99.90
9371;DHT22;4725;48.384;8.984;2022-12-08T13:38:14;1.50;99.90
9371;DHT22;4725;48.384;8.984;2022-12-08T13:40:43;1.50;99.90
9371;DHT22;4725;48.384;8.984;2022-12-08T13:43:18;1.50;99.90
9371;DHT22;4725;48.384;8.984;2022-12-08T13:45:48;1.50;99.90
9371;DHT22;4725;48.384;8.984;2022-12-08T13:48:23;1.50;99.90
9371;DHT22;4725;48.384;8.984;2022-12-08T13:50:54;1.40;99.90
9371;DHT22;4725;48.384;8.984;2022-12-08T13:53:25;1.40;99.90
9371;DHT22;4725;48.384;8.984;2022-12-08T13:55:55;1.40;99.90
9371;DHT22;4725;48.384;8.984;2022-12-08T13:58:25;1.40;99.90
9371;DHT22;4725;48.384;8.984;2022-12-08T14:00:55;1.40;99.90
9371;DHT22;4725;48.384;8.984;2022-12-08T14:03:24;1.50;99.90
9371;DHT22;4725;48.384;8.984;2022-12-08T14:05:52;1.40;99.90
9371;DHT22;4725;48.384;8.984;2022-12-08T14:08:26;1.30;99.90
9371;DHT22;4725;48.384;8.984;2022-12-08T14:10:58;1.30;99.90
9371;DHT22;4725;48.384;8.984;2022-12-08T14:13:28;1.30;99.90
9371;DHT22;4725;48.384;8.984;2022-12-08T14:15:55;1.30;99.90
9371;DHT22;4725;48.384;8.984;2022-12-08T14:18:24;1.30;99.90
9371;DHT22;4725;48.384;8.984;2022-12-08T14:21:01;1.20;99.90
9371;DHT22;4725;48.384;8.984;2022-12-08T14:23:28;1.20;99.90
9371;DHT22;4725;48.384;8.984;2022-12-08T14:25:55;1.20;99.90
9371;DHT22;4725;48.384;8.984;2022-12-08T14:28:24;1.20;99.90
9371;DHT22;4725;48.384;8.984;2022-12-08T14:30:51;1.10;99.90
9371;DHT22;4725;48.384;8.984;2022-12-08T14:33:21;1.10;99.90
9371;DHT22;4725;48.384;8.984;2022-12-08T14:35:50;1.10;99.90
9371;DHT22;4725;48.384;8.984;2022-12-08T14:38:20;1.00;99.90
9371;DHT22;4725;48.384;8.984;2022-12-08T14:40:48;1.00;99.90
9371;DHT22;4725;48.384;8.984;2022-12-08T14:43:26;1.00;99.90
9371;DHT22;4725;48.384;8.984;2022-12-08T14:45:58;1.00;99.90
9371;DHT22;4725;48.384;8.984;2022-12-08T14:48:32;1.00;99.90
9371;DHT22;4725;48.384;8.984;2022-12-08T14:51:08;0.90;99.90
9371;DHT22;4725;48.384;8.984;2022-12-08T14:53:41;0.90;99.90
9371;DHT22;4725;48.384;8.984;2022-12-08T14:56:16;0.80;99.90
9371;DHT22;4725;48.384;8.984;2022-12-08T14:58:44;0.80;99.90
9371;DHT22;4725;48.384;8.984;2022-12-08T15:01:13;0.70;99.90
9371;DHT22;4725;48.384;8.984;2022-12-08T15:03:41;0.70;99.90
9371;DHT22;4725;48.384;8.984;2022-12-08T15:06:09;0.80;99.90
9371;DHT22;4725;48.384;8.984;2022-12-08T15:08:52;0.70;99.90
9371;DHT22;4725;48.384;8.984;2022-12-08T15:11:31;0.70;99.90
9371;DHT22;4725;48.384;8.984;2022-12-08T15:16:28;0.60;99.90
9371;DHT22;4725;48.384;8.984;2022-12-08T15:19:13;0.70;99.90
9371;DHT22;4725;48.384;8.984;2022-12-08T15:21:41;0.60;99.90
9371;DHT22;4725;48.384;8.984;2022-12-08T15:24:12;0.60;99.90
9371;DHT22;4725;48.384;8.984;2022-12-08T15:26:43;0.60;99.90
9371;DHT22;4725;48.384;8.984;2022-12-08T15:29:13;0.50;99.90
9371;DHT22;4725;48.384;8.984;2022-12-08T15:31:42;0.50;99.90
9371;DHT22;4725;48.384;8.984;2022-12-08T15:34:09;0.50;99.90
9371;DHT22;4725;48.384;8.984;2022-12-08T15:36:36;0.50;99.90
9371;DHT22;4725;48.384;8.984;2022-12-08T15:39:05;0.50;99.90
9371;DHT22;4725;48.384;8.984;2022-12-08T15:41:34;0.40;99.90
9371;DHT22;4725;48.384;8.984;2022-12-08T15:44:01;0.40;99.90
9371;DHT22;4725;48.384;8.984;2022-12-08T15:46:28;0.30;99.90
9371;DHT22;4725;48.384;8.984;2022-12-08T15:48:55;0.30;99.90
9371;DHT22;4725;48.384;8.984;2022-12-08T15:51:22;0.40;99.90
9371;DHT22;4725;48.384;8.984;2022-12-08T15:53:49;0.40;99.90
9371;DHT22;4725;48.384;8.984;2022-12-08T15:56:16;0.30;99.90
9371;DHT22;4725;48.384;8.984;2022-12-08T15:58:45;0.40;99.90
9371;DHT22;4725;48.384;8.984;2022-12-08T16:01:12;0.40;99.90
9371;DHT22;4725;48.384;8.984;2022-12-08T16:03:40;0.40;99.90
9371;DHT22;4725;48.384;8.984;2022-12-08T16:06:14;0.50;99.90
9371;DHT22;4725;48.384;8.984;2022-12-08T16:08:41;0.50;99.90
9371;DHT22;4725;48.384;8.984;2022-12-08T16:13:54;0.50;99.90
9371;DHT22;4725;48.384;8.984;2022-12-08T16:16:26;0.40;99.90
9371;DHT22;4725;48.384;8.984;2022-12-08T16:21:21;0.30;99.90
9371;DHT22;4725;48.384;8.984;2022-12-08T16:23:48;0.20;99.90
9371;DHT22;4725;48.384;8.984;2022-12-08T16:26:16;0.10;99.90
9371;DHT22;4725;48.384;8.984;2022-12-08T16:28:44;0.10;99.90
9371;DHT22;4725;48.384;8.984;2022-12-08T16:31:13;0.10;99.90
9371;DHT22;4725;48.384;8.984;2022-12-08T16:33:40;0.00;99.90
9371;DHT22;4725;48.384;8.984;2022-12-08T16:36:08;-0.10;99.90
9371;DHT22;4725;48.384;8.984;2022-12-08T16:41:03;-0.50;99.90
9371;DHT22;4725;48.384;8.984;2022-12-08T16:44:00;-0.60;99.90
9371;DHT22;4725;48.384;8.984;2022-12-08T16:46:29;-0.80;99.90
9371;DHT22;4725;48.384;8.984;2022-12-08T16:48:56;-0.90;99.90
9371;DHT22;4725;48.384;8.984;2022-12-08T16:51:24;-1.10;99.90
9371;DHT22;4725;48.384;8.984;2022-12-08T16:53:51;-1.10;99.90
9371;DHT22;4725;48.384;8.984;2022-12-08T16:56:19;-1.20;99.90
9371;DHT22;4725;48.384;8.984;2022-12-08T16:58:46;-1.20;99.90
9371;DHT22;4725;48.384;8.984;2022-12-08T17:01:16;-1.30;99.90
9371;DHT22;4725;48.384;8.984;2022-12-08T17:03:45;-1.40;99.90
9371;DHT22;4725;48.384;8.984;2022-12-08T17:06:14;-1.40;99.90
9371;DHT22;4725;48.384;8.984;2022-12-08T17:08:42;-1.50;99.90
9371;DHT22;4725;48.384;8.984;2022-12-08T17:11:15;-1.60;99.90
9371;DHT22;4725;48.384;8.984;2022-12-08T17:13:45;-1.60;99.90
9371;DHT22;4725;48.384;8.984;2022-12-08T17:16:15;-1.60;99.90
9371;DHT22;4725;48.384;8.984;2022-12-08T17:18:45;-1.70;99.90
9371;DHT22;4725;48.384;8.984;2022-12-08T17:21:13;-1.60;99.90
9371;DHT22;4725;48.384;8.984;2022-12-08T17:23:42;-1.60;99.90
9371;DHT22;4725;48.384;8.984;2022-12-08T17:26:09;-1.70;99.90
9371;DHT22;4725;48.384;8.984;2022-12-08T17:28:36;-1.90;99.90
9371;DHT22;4725;48.384;8.984;2022-12-08T17:31:08;-2.10;99.90
9371;DHT22;4725;48.384;8.984;2022-12-08T17:33:35;-2.10;99.90
9371;DHT22;4725;48.384;8.984;2022-12-08T17:36:06;-2.10;99.90
9371;DHT22;4725;48.384;8.984;2022-12-08T17:38:33;-2.20;99.90
9371;DHT22;4725;48.384;8.984;2022-12-08T17:41:04;-2.30;99.90
9371;DHT22;4725;48.384;8.984;2022-12-08T17:43:32;-2.30;99.90
9371;DHT22;4725;48.384;8.984;2022-12-08T17:45:59;-2.30;99.90
9371;DHT22;4725;48.384;8.984;2022-12-08T17:48:27;-2.50;99.90
9371;DHT22;4725;48.384;8.984;2022-12-08T17:50:53;-1.70;99.90
9371;DHT22;4725;48.384;8.984;2022-12-08T17:53:22;-2.50;99.90
9371;DHT22;4725;48.384;8.984;2022-12-08T17:55:54;-2.50;99.90